createdAt,value
2019-03-01T00:01:30.839Z,98799.13
2019-03-01T00:05:13.603Z,98796.04
2019-03-01T00:08:32.338Z,98806.14
2019-03-01T00:11:57.765Z,98803.41
2019-03-01T00:15:24.866Z,98794.32
2019-03-01T00:18:58.670Z,98790.67
2019-03-01T00:22:29.081Z,98789.22
2019-03-01T00:26:14.723Z,98780.58
2019-03-01T00:30:13.438Z,98780.87
2019-03-01T00:34:15.060Z,98775.43
2019-03-01T00:37:53.366Z,98768.60
2019-03-01T00:41:42.884Z,98765.92
2019-03-01T00:44:49.101Z,98758.06
2019-03-01T00:47:55.049Z,98753.35
2019-03-01T00:51:00.937Z,98746.08
2019-03-01T00:54:06.905Z,98742.55
2019-03-01T00:57:13.003Z,98728.94
2019-03-01T01:00:33.488Z,98725.55
2019-03-01T01:03:39.462Z,98725.09
2019-03-01T01:06:45.383Z,98729.67
2019-03-01T01:09:51.299Z,98727.70
2019-03-01T01:12:57.240Z,98724.56
2019-03-01T01:16:03.168Z,98716.42
2019-03-01T01:19:09.053Z,98708.52
2019-03-01T01:22:15.048Z,98710.59
2019-03-01T01:25:20.961Z,98699.00
2019-03-01T01:28:26.974Z,98712.40
2019-03-01T01:31:32.854Z,98711.94
2019-03-01T01:34:38.840Z,98704.40
2019-03-01T01:37:44.731Z,98700.66
2019-03-01T01:40:50.706Z,98704.54
2019-03-01T01:43:56.595Z,98702.28
2019-03-01T01:47:02.534Z,98697.58
2019-03-01T01:50:08.688Z,98699.88
2019-03-01T01:53:14.593Z,98697.95
2019-03-01T01:56:20.993Z,98705.06
2019-03-01T01:59:26.892Z,98694.59
2019-03-01T02:02:32.766Z,98701.72
2019-03-01T02:05:38.749Z,98701.72
2019-03-01T02:08:45.650Z,98706.42
2019-03-01T02:11:51.660Z,98704.75
2019-03-01T02:14:57.578Z,98708.62
2019-03-01T02:18:03.565Z,98713.87
2019-03-01T02:21:09.449Z,98710.59
2019-03-01T02:24:15.431Z,98718.57
2019-03-01T02:27:26.826Z,98720.38
2019-03-01T02:30:33.007Z,98724.35
2019-03-01T02:33:38.904Z,98721.09
2019-03-01T02:36:44.771Z,98730.86
2019-03-01T02:39:50.647Z,98725.91
2019-03-01T02:42:56.568Z,98726.16
2019-03-01T02:46:02.492Z,98724.73
2019-03-01T02:49:08.385Z,98724.61
2019-03-01T02:52:14.394Z,98725.95
2019-03-01T02:55:21.478Z,98725.66
2019-03-01T02:58:27.370Z,98735.41
2019-03-01T03:01:33.250Z,98734.77
2019-03-01T03:04:39.155Z,98733.45
2019-03-01T03:07:50.072Z,98736.94
2019-03-01T03:10:55.973Z,98735.70
2019-03-01T03:14:01.877Z,98731.03
2019-03-01T03:17:07.925Z,98737.59
2019-03-01T03:20:14.068Z,98738.68
2019-03-01T03:23:19.982Z,98744.70
2019-03-01T03:26:25.932Z,98742.25
2019-03-01T03:29:31.832Z,98737.56
2019-03-01T03:32:37.809Z,98740.39
2019-03-01T03:35:43.731Z,98736.27
2019-03-01T03:38:49.648Z,98734.55
2019-03-01T03:41:55.654Z,98724.38
2019-03-01T03:45:01.570Z,98736.46
2019-03-01T03:48:07.516Z,98730.02
2019-03-01T03:51:13.648Z,98729.55
2019-03-01T03:54:19.575Z,98728.44
2019-03-01T03:57:25.455Z,98726.13
2019-03-01T04:00:31.478Z,98722.58
2019-03-01T04:03:37.672Z,98724.02
2019-03-01T04:06:43.772Z,98710.67
2019-03-01T04:09:49.679Z,98714.27
2019-03-01T04:12:55.560Z,98717.77
2019-03-01T04:16:01.471Z,98721.24
2019-03-01T04:19:07.399Z,98721.24
2019-03-01T04:22:13.334Z,98714.52
2019-03-01T04:25:19.186Z,98713.48
2019-03-01T04:28:25.089Z,98720.27
2019-03-01T04:31:30.972Z,98713.30
2019-03-01T04:34:36.884Z,98718.23
2019-03-01T04:37:42.873Z,98718.26
2019-03-01T04:40:48.805Z,98720.55
2019-03-01T04:43:54.675Z,98731.73
2019-03-01T04:47:00.547Z,98720.86
2019-03-01T04:50:07.180Z,98714.89
2019-03-01T04:53:13.067Z,98718.20
2019-03-01T04:56:18.989Z,98716.53
2019-03-01T04:59:25.980Z,98707.23
2019-03-01T05:02:34.856Z,98707.00
2019-03-01T05:05:40.733Z,98698.46
2019-03-01T05:08:46.603Z,98709.00
2019-03-01T05:11:52.510Z,98715.25
2019-03-01T05:14:58.428Z,98713.90
2019-03-01T05:18:04.326Z,98722.91
2019-03-01T05:21:10.239Z,98736.78
2019-03-01T05:24:16.180Z,98737.66
2019-03-01T05:27:22.081Z,98739.98
2019-03-01T05:30:27.961Z,98756.01
2019-03-01T05:33:33.844Z,98758.67
2019-03-01T05:36:39.744Z,98769.81
2019-03-01T05:39:45.655Z,98773.04
2019-03-01T05:42:51.571Z,98774.30
2019-03-01T05:45:57.437Z,98782.25
2019-03-01T05:49:03.376Z,98791.20
2019-03-01T05:52:09.273Z,98792.21
2019-03-01T05:55:15.464Z,98794.44
2019-03-01T05:58:47.622Z,98803.41
2019-03-01T06:02:31.369Z,98804.87
2019-03-01T06:05:39.597Z,98801.23
2019-03-01T06:09:08.833Z,98802.95
2019-03-01T06:12:48.150Z,98809.80
2019-03-01T06:16:33.438Z,98814.85
2019-03-01T06:19:57.383Z,98815.14
2019-03-01T06:23:50.021Z,98824.30
2019-03-01T06:27:32.872Z,98823.66
2019-03-01T06:31:20.423Z,98832.80
2019-03-01T06:35:09.231Z,98836.29
2019-03-01T06:39:10.411Z,98838.10
2019-03-01T06:42:53.038Z,98849.61
2019-03-01T06:46:22.412Z,98858.06
2019-03-01T06:49:47.793Z,98873.17
2019-03-01T06:52:53.678Z,98882.17
2019-03-01T06:56:02.377Z,98883.80
2019-03-01T06:59:08.948Z,98880.74
2019-03-01T07:02:18.847Z,98883.41
2019-03-01T07:05:24.744Z,98890.91
2019-03-01T07:08:30.712Z,98894.33
2019-03-01T07:11:36.596Z,98889.55
2019-03-01T07:14:42.477Z,98892.44
2019-03-01T07:17:48.371Z,98889.80
2019-03-01T07:20:54.275Z,98893.38
2019-03-01T07:24:00.217Z,98885.46
2019-03-01T07:27:07.246Z,98884.14
2019-03-01T07:30:13.368Z,98892.42
2019-03-01T07:33:19.270Z,98884.11
2019-03-01T07:36:25.175Z,98886.69
2019-03-01T07:39:31.158Z,98877.79
2019-03-01T07:42:37.061Z,98884.75
2019-03-01T07:45:42.971Z,98880.93
2019-03-01T07:48:48.975Z,98883.63
2019-03-01T07:51:54.879Z,98886.03
2019-03-01T07:55:00.820Z,98879.04
2019-03-01T07:58:06.856Z,98881.50
2019-03-01T08:01:12.925Z,98881.50
2019-03-01T08:04:18.814Z,98870.97
2019-03-01T08:07:24.718Z,98873.56
2019-03-01T08:10:30.613Z,98861.97
2019-03-01T08:13:36.483Z,98868.53
2019-03-01T08:16:42.560Z,98855.25
2019-03-01T08:19:48.454Z,98865.53
2019-03-01T08:22:56.755Z,98870.20
2019-03-01T08:26:03.482Z,98855.90
2019-03-01T08:29:09.687Z,98850.15
2019-03-01T08:32:15.574Z,98847.14
2019-03-01T08:35:21.582Z,98842.48
2019-03-01T08:38:28.948Z,98847.14
2019-03-01T08:41:35.201Z,98840.00
2019-03-01T08:44:41.105Z,98842.37
2019-03-01T08:47:48.819Z,98839.76
2019-03-01T08:50:55.021Z,98833.89
2019-03-01T08:54:01.029Z,98827.44
2019-03-01T08:57:06.926Z,98852.77
2019-03-01T09:00:26.893Z,98830.33
2019-03-01T09:03:38.941Z,98830.95
2019-03-01T09:06:44.833Z,98840.21
2019-03-01T09:09:53.748Z,98843.75
2019-03-01T09:12:58.587Z,98849.75
2019-03-01T09:16:05.028Z,98834.22
2019-03-01T09:19:11.023Z,98835.67
2019-03-01T09:22:17.030Z,98838.03
2019-03-01T09:25:23.080Z,98818.28
2019-03-01T09:28:29.062Z,98832.91
2019-03-01T09:31:34.952Z,98832.63
2019-03-01T09:34:40.927Z,98817.95
2019-03-01T09:37:46.917Z,98816.03
2019-03-01T09:40:52.872Z,98809.22
2019-03-01T09:43:59.679Z,98810.30
2019-03-01T09:47:06.680Z,98807.98
2019-03-01T09:50:12.782Z,98802.50
2019-03-01T09:53:18.778Z,98807.94
2019-03-01T09:56:25.972Z,98805.33
2019-03-01T09:59:31.882Z,98797.40
2019-03-01T10:02:37.785Z,98796.89
2019-03-01T10:05:43.750Z,98803.11
2019-03-01T10:08:49.861Z,98794.51
2019-03-01T10:11:55.878Z,98796.64
2019-03-01T10:15:01.800Z,98791.27
2019-03-01T10:18:08.215Z,98784.43
2019-03-01T10:21:14.151Z,98786.12
2019-03-01T10:24:19.948Z,98781.66
2019-03-01T10:27:25.702Z,98785.61
2019-03-01T10:30:31.487Z,98778.62
2019-03-01T10:33:37.412Z,98783.28
2019-03-01T10:36:43.175Z,98780.70
2019-03-01T10:39:55.327Z,98776.49
2019-03-01T10:42:56.350Z,98772.78
2019-03-01T10:46:02.062Z,98785.55
2019-03-01T10:49:07.779Z,98768.50
2019-03-01T10:52:13.566Z,98776.42
2019-03-01T10:55:19.419Z,98767.98
2019-03-01T10:58:25.277Z,98770.06
2019-03-01T11:01:30.994Z,98771.95
2019-03-01T11:04:36.714Z,98779.23
2019-03-01T11:07:45.065Z,98761.97
2019-03-01T11:10:50.804Z,98771.05
2019-03-01T11:13:56.610Z,98760.45
2019-03-01T11:17:02.291Z,98755.74
2019-03-01T11:20:08.845Z,98748.42
2019-03-01T11:23:14.723Z,98750.68
2019-03-01T11:26:20.443Z,98752.61
2019-03-01T11:29:26.153Z,98753.58
2019-03-01T11:32:31.906Z,98755.69
2019-03-01T11:35:37.735Z,98742.23
2019-03-01T11:38:43.549Z,98738.41
2019-03-01T11:41:49.350Z,98738.18
2019-03-01T11:44:55.062Z,98735.61
2019-03-01T11:48:00.986Z,98740.56
2019-03-01T11:51:06.691Z,98725.17
2019-03-01T11:54:12.416Z,98739.45
2019-03-01T11:57:18.284Z,98729.91
2019-03-01T12:00:24.469Z,98717.85
2019-03-01T12:03:30.212Z,98710.70
2019-03-01T12:06:35.932Z,98716.92
2019-03-01T12:09:41.668Z,98710.03
2019-03-01T12:12:47.702Z,98708.09
2019-03-01T12:15:53.424Z,98699.19
2019-03-01T12:18:59.204Z,98687.98
2019-03-01T12:22:04.950Z,98687.66
2019-03-01T12:25:10.996Z,98688.62
2019-03-01T12:28:16.749Z,98678.83
2019-03-01T12:31:22.475Z,98674.03
2019-03-01T12:34:28.290Z,98675.17
2019-03-01T12:37:34.009Z,98674.78
2019-03-01T12:40:39.712Z,98665.91
2019-03-01T12:43:46.435Z,98664.44
2019-03-01T12:46:52.138Z,98665.98
2019-03-01T12:50:00.052Z,98657.14
2019-03-01T12:53:05.535Z,98655.02
2019-03-01T12:56:11.280Z,98657.13
2019-03-01T12:59:17.145Z,98659.35
2019-03-01T13:02:22.943Z,98658.13
2019-03-01T13:05:30.152Z,98658.66
2019-03-01T13:08:36.187Z,98663.56
2019-03-01T13:11:41.905Z,98660.97
2019-03-01T13:14:47.743Z,98651.77
2019-03-01T13:17:53.579Z,98645.73
2019-03-01T13:20:59.417Z,98645.84
2019-03-01T13:24:05.302Z,98650.88
2019-03-01T13:27:14.101Z,98635.80
2019-03-01T13:30:21.513Z,98645.00
2019-03-01T13:33:27.438Z,98640.80
2019-03-01T13:36:36.200Z,98628.27
2019-03-01T13:39:45.049Z,98633.65
2019-03-01T13:42:50.760Z,98637.27
2019-03-01T13:45:57.708Z,98632.47
2019-03-01T13:49:03.447Z,98627.87
2019-03-01T13:52:14.770Z,98632.20
2019-03-01T13:55:22.224Z,98620.03
2019-03-01T13:58:28.165Z,98618.67
2019-03-01T14:01:33.991Z,98615.56
2019-03-01T14:04:40.250Z,98612.31
2019-03-01T14:07:47.410Z,98614.86
2019-03-01T14:10:53.217Z,98605.17
2019-03-01T14:13:58.955Z,98607.45
2019-03-01T14:17:06.387Z,98592.65
2019-03-01T14:20:19.108Z,98588.20
2019-03-01T14:23:24.876Z,98584.09
2019-03-01T14:26:29.433Z,98582.54
2019-03-01T14:29:35.206Z,98576.91
2019-03-01T14:32:41.068Z,98581.63
2019-03-01T14:35:46.788Z,98576.13
2019-03-01T14:38:52.622Z,98576.71
2019-03-01T14:42:00.541Z,98570.72
2019-03-01T14:45:09.680Z,98562.72
2019-03-01T14:48:16.538Z,98564.47
2019-03-01T14:51:22.280Z,98562.13
2019-03-01T14:54:28.039Z,98567.89
2019-03-01T14:57:37.052Z,98566.64
2019-03-01T15:00:50.978Z,98565.31
2019-03-01T15:03:54.947Z,98567.83
2019-03-01T15:07:00.646Z,98565.65
2019-03-01T15:10:08.148Z,98566.95
2019-03-01T15:13:13.913Z,98572.25
2019-03-01T15:16:20.920Z,98563.55
2019-03-01T15:19:26.661Z,98567.61
2019-03-01T15:22:32.394Z,98564.32
2019-03-01T15:25:38.131Z,98564.20
2019-03-01T15:28:53.914Z,98561.57
2019-03-01T15:31:57.613Z,98561.13
2019-03-01T15:35:04.377Z,98561.84
2019-03-01T15:38:10.895Z,98569.17
2019-03-01T15:41:16.802Z,98568.44
2019-03-01T15:44:22.571Z,98571.06
2019-03-01T15:47:28.284Z,98571.01
2019-03-01T15:50:34.069Z,98572.38
2019-03-01T15:53:39.797Z,98575.89
2019-03-01T15:56:46.577Z,98576.83
2019-03-01T15:59:52.317Z,98580.44
2019-03-01T16:02:58.159Z,98579.25
2019-03-01T16:06:03.928Z,98584.63
2019-03-01T16:09:15.571Z,98581.81
2019-03-01T16:12:21.484Z,98580.80
2019-03-01T16:15:27.252Z,98584.37
2019-03-01T16:18:35.444Z,98592.41
2019-03-01T16:21:43.068Z,98593.40
2019-03-01T16:24:47.919Z,98589.57
2019-03-01T16:27:54.349Z,98597.69
2019-03-01T16:31:00.865Z,98629.38
2019-03-01T16:34:06.805Z,98603.86
2019-03-01T16:37:12.646Z,98603.86
2019-03-01T16:40:18.374Z,98601.78
2019-03-01T16:43:25.453Z,98608.88
2019-03-01T16:46:32.181Z,98608.88
2019-03-01T16:49:38.003Z,98616.77
2019-03-01T16:52:43.894Z,98613.94
2019-03-01T16:55:49.651Z,98620.16
2019-03-01T16:58:55.412Z,98620.66
2019-03-01T17:02:06.324Z,98617.91
2019-03-01T17:05:09.636Z,98623.30
2019-03-01T17:08:15.407Z,98637.61
2019-03-01T17:11:21.150Z,98638.39
2019-03-01T17:14:26.993Z,98633.66
2019-03-01T17:17:33.046Z,98632.26
2019-03-01T17:20:40.324Z,98632.53
2019-03-01T17:23:46.089Z,98642.93
2019-03-01T17:26:52.099Z,98640.75
2019-03-01T17:29:57.859Z,98640.74
2019-03-01T17:33:03.577Z,98645.70
2019-03-01T17:36:09.346Z,98646.60
2019-03-01T17:39:16.709Z,98650.73
2019-03-01T17:42:22.890Z,98654.91
2019-03-01T17:45:28.773Z,98659.79
2019-03-01T17:48:34.514Z,98668.23
2019-03-01T17:51:40.273Z,98679.29
2019-03-01T17:54:46.036Z,98679.19
2019-03-01T17:57:52.853Z,98673.22
2019-03-01T18:00:58.807Z,98679.09
2019-03-01T18:04:06.025Z,98682.64
2019-03-01T18:07:12.089Z,98685.59
2019-03-01T18:10:17.942Z,98682.34
2019-03-01T18:13:23.753Z,98690.05
2019-03-01T18:16:30.644Z,98689.11
2019-03-01T18:19:36.475Z,98703.39
2019-03-01T18:22:42.391Z,98699.66
2019-03-01T18:25:48.112Z,98702.16
2019-03-01T18:28:54.292Z,98702.25
2019-03-01T18:32:00.070Z,98708.92
2019-03-01T18:35:08.091Z,98713.05
2019-03-01T18:38:15.013Z,98713.13
2019-03-01T18:41:20.794Z,98715.42
2019-03-01T18:44:27.039Z,98714.48
2019-03-01T18:47:32.867Z,98717.05
2019-03-01T18:50:38.854Z,98723.39
2019-03-01T18:53:45.590Z,98731.62
2019-03-01T18:56:51.482Z,98734.44
2019-03-01T18:59:59.914Z,98736.45
2019-03-01T19:03:06.667Z,98732.47
2019-03-01T19:06:12.899Z,98734.38
2019-03-01T19:09:19.927Z,98732.00
2019-03-01T19:12:25.724Z,98730.36
2019-03-01T19:15:31.750Z,98729.64
2019-03-01T19:18:37.560Z,98723.75
2019-03-01T19:21:43.321Z,98727.36
2019-03-01T19:24:50.036Z,98738.90
2019-03-01T19:27:56.618Z,98739.64
2019-03-01T19:31:02.464Z,98744.88
2019-03-01T19:34:08.183Z,98749.60
2019-03-01T19:37:14.570Z,98758.31
2019-03-01T19:40:20.512Z,98755.66
2019-03-01T19:43:26.316Z,98759.07
2019-03-01T19:46:32.064Z,98757.45
2019-03-01T19:49:37.799Z,98767.30
2019-03-01T19:52:47.071Z,98766.76
2019-03-01T19:55:51.149Z,98767.26
2019-03-01T19:58:56.870Z,98770.91
2019-03-01T20:02:03.622Z,98770.31
2019-03-01T20:05:11.318Z,98766.86
2019-03-01T20:08:17.159Z,98761.06
2019-03-01T20:11:23.390Z,98760.66
2019-03-01T20:14:33.632Z,98758.91
2019-03-01T20:17:44.130Z,98758.95
2019-03-01T20:20:45.280Z,98765.52
2019-03-01T20:23:51.026Z,98769.28
2019-03-01T20:26:59.885Z,98773.16
2019-03-01T20:30:04.719Z,98773.30
2019-03-01T20:33:10.730Z,98771.33
2019-03-01T20:36:17.697Z,98767.94
2019-03-01T20:39:24.037Z,98779.28
2019-03-01T20:42:29.865Z,98782.69
2019-03-01T20:45:35.637Z,98779.33
2019-03-01T20:48:41.355Z,98773.57
2019-03-01T20:51:48.074Z,98768.83
2019-03-01T20:54:53.888Z,98775.17
2019-03-01T20:58:02.867Z,98770.54
2019-03-01T21:01:07.245Z,98766.66
2019-03-01T21:04:13.071Z,98764.25
2019-03-01T21:07:18.844Z,98769.59
2019-03-01T21:10:24.804Z,98766.74
2019-03-01T21:13:30.528Z,98771.47
2019-03-01T21:16:36.299Z,98774.84
2019-03-01T21:19:43.823Z,98778.59
2019-03-01T21:22:49.576Z,98769.30
2019-03-01T21:25:55.302Z,98764.93
2019-03-01T21:29:01.138Z,98761.41
2019-03-01T21:32:07.999Z,98760.14
2019-03-01T21:35:16.706Z,98770.92
2019-03-01T21:38:21.488Z,98777.39
2019-03-01T21:41:27.249Z,98778.33
2019-03-01T21:44:32.980Z,98780.02
2019-03-01T21:47:38.733Z,98777.97
2019-03-01T21:50:44.576Z,98772.53
2019-03-01T21:53:50.303Z,98772.20
2019-03-01T21:56:57.065Z,98780.94
2019-03-01T22:00:04.100Z,98779.97
2019-03-01T22:03:11.477Z,98771.78
2019-03-01T22:06:17.218Z,98765.03
2019-03-01T22:09:24.264Z,98758.83
2019-03-01T22:12:30.369Z,98755.03
2019-03-01T22:15:36.292Z,98759.16
2019-03-01T22:18:42.143Z,98751.23
2019-03-01T22:21:47.848Z,98749.92
2019-03-01T22:24:53.580Z,98747.38
2019-03-01T22:28:01.216Z,98754.73
2019-03-01T22:31:06.758Z,98753.63
2019-03-01T22:34:12.582Z,98753.82
2019-03-01T22:37:18.301Z,98746.85
2019-03-01T22:40:28.010Z,98745.60
2019-03-01T22:43:31.421Z,98745.28
2019-03-01T22:46:37.146Z,98742.80
2019-03-01T22:49:42.954Z,98735.05
2019-03-01T22:52:48.658Z,98733.47
2019-03-01T22:55:54.368Z,98735.98
2019-03-01T22:59:00.310Z,98733.41
2019-03-01T23:02:09.315Z,98746.66
2019-03-01T23:05:15.263Z,98744.14
2019-03-01T23:08:20.978Z,98747.09
2019-03-01T23:11:28.655Z,98743.03
2019-03-01T23:14:34.126Z,98742.15
2019-03-01T23:17:39.978Z,98742.66
2019-03-01T23:20:45.703Z,98738.53
2019-03-01T23:23:52.331Z,98738.42
2019-03-01T23:26:58.063Z,98743.03
2019-03-01T23:30:04.201Z,98735.86
2019-03-01T23:33:11.204Z,98739.28
2019-03-01T23:36:17.018Z,98745.97
2019-03-01T23:39:24.584Z,98745.80
2019-03-01T23:42:30.311Z,98746.59
2019-03-01T23:45:36.043Z,98745.66
2019-03-01T23:48:41.762Z,98737.73
2019-03-01T23:51:47.533Z,98742.58
2019-03-01T23:54:53.240Z,98743.03
2019-03-01T23:58:05.682Z,98739.65
